Time;durP1;ratioP1;P1;durP2;ratioP2;P2;SDS_P1;SDS_P2;PMS_P1;PMS_P2;Temp;Humidity;BMP_temperature;BMP_pressure;BME280_temperature;BME280_humidity;BME280_pressure;Samples;Min_cycle;Max_cycle;Signal;HPM_P1;HPM_P2
2024/01/18 00:00:13;;;;;;;43.45;11.23;;;;;;;;;;1037935;28;20034;-22
2024/01/18 00:00:43;;;;;;;11.48;6.28;;;;;;;;;;1037702;28;20025;-22
2024/01/18 00:01:13;;;;;;;6.63;5.43;;;;;;;;;;1037614;28;20548;-22
2024/01/18 00:01:48;;;;;;;11.30;8.68;;;;;;;;;;1038056;28;20032;-22
2024/01/18 00:02:18;;;;;;;9.38;8.10;;;;;;;;;;1037996;28;20060;-22
2024/01/18 00:02:49;;;;;;;5.53;5.05;;;;;;;;;;1038174;28;20018;-22
2024/01/18 00:03:20;;;;;;;15.10;11.40;;;;;;;;;;1038018;28;20029;-22
2024/01/18 00:03:50;;;;;;;8.23;6.47;;;;;;;;;;1037951;28;20505;-22
2024/01/18 00:04:20;;;;;;;9.30;8.60;;;;;;;;;;1037784;28;20026;-22
2024/01/18 00:04:51;;;;;;;25.13;12.98;;;;;;;;;;1038043;28;20374;-22
2024/01/18 00:05:21;;;;;;;27.77;9.63;;;;;;;;;;1036601;28;20486;-22
2024/01/18 00:05:52;;;;;;;13.40;11.85;;;;;;;;;;1038162;28;20029;-22
2024/01/18 00:06:22;;;;;;;27.10;7.65;;;;;;;;;;1037918;28;20112;-22
2024/01/18 00:06:52;;;;;;;22.33;12.55;;;;;;;;;;1037973;28;20033;-22
2024/01/18 00:07:23;;;;;;;12.63;6.32;;;;;;;;;;1038115;28;20025;-22
2024/01/18 00:07:53;;;;;;;16.95;12.18;;;;;;;;;;1037995;28;20022;-22
2024/01/18 00:08:24;;;;;;;11.45;9.68;;;;;;;;;;1037934;28;20470;-22
2024/01/18 00:08:54;;;;;;;28.15;12.63;;;;;;;;;;1037905;28;20026;-22
2024/01/18 00:09:25;;;;;;;15.98;11.40;;;;;;;;;;1038065;28;20117;-22
2024/01/18 00:09:56;;;;;;;21.17;14.02;;;;;;;;;;1037743;28;21103;-22
2024/01/18 00:10:28;;;;;;;8.68;7.57;;;;;;;;;;1038201;28;20025;-22
2024/01/18 00:10:59;;;;;;;5.93;5.53;;;;;;;;;;1037859;28;20026;-22
2024/01/18 00:11:29;;;;;;;9.80;8.63;;;;;;;;;;1037995;28;20021;-22
2024/01/18 00:12:00;;;;;;;6.97;6.43;;;;;;;;;;1037853;28;20083;-22
2024/01/18 00:12:31;;;;;;;15.45;6.35;;;;;;;;;;1037769;28;20504;-22
2024/01/18 00:13:01;;;;;;;19.17;10.75;;;;;;;;;;1038377;28;20076;-22
2024/01/18 00:13:32;;;;;;;6.05;5.10;;;;;;;;;;1037885;28;20025;-22
2024/01/18 00:14:02;;;;;;;18.92;9.35;;;;;;;;;;1037948;28;20025;-22
2024/01/18 00:14:33;;;;;;;12.02;5.88;;;;;;;;;;1038931;28;20030;-22
2024/01/18 00:15:03;;;;;;;10.77;8.98;;;;;;;;;;1037921;28;20022;-21
2024/01/18 00:15:34;;;;;;;6.55;5.78;;;;;;;;;;1038949;28;20021;-22
2024/01/18 00:16:04;;;;;;;9.68;5.97;;;;;;;;;;1036428;28;20025;-22
2024/01/18 00:16:35;;;;;;;20.60;8.50;;;;;;;;;;1037965;28;20049;-22
2024/01/18 00:17:05;;;;;;;7.47;6.72;;;;;;;;;;1037840;28;20029;-22
2024/01/18 00:17:37;;;;;;;12.52;7.32;;;;;;;;;;1038146;28;20018;-22
2024/01/18 00:18:07;;;;;;;14.07;9.20;;;;;;;;;;1038430;28;20112;-22
2024/01/18 00:18:38;;;;;;;12.13;7.15;;;;;;;;;;1037785;28;20025;-22
2024/01/18 00:19:08;;;;;;;6.35;5.03;;;;;;;;;;1037727;28;20935;-22
2024/01/18 00:19:38;;;;;;;8.25;7.05;;;;;;;;;;1037879;28;20470;-22
2024/01/18 00:20:09;;;;;;;7.97;7.28;;;;;;;;;;1037724;28;20466;-22
2024/01/18 00:20:40;;;;;;;13.38;10.25;;;;;;;;;;1038178;28;20030;-22
2024/01/18 00:21:10;;;;;;;13.70;7.13;;;;;;;;;;1037786;28;20036;-22
2024/01/18 00:21:41;;;;;;;6.70;6.03;;;;;;;;;;1037643;28;20053;-22
2024/01/18 00:22:11;;;;;;;8.82;5.53;;;;;;;;;;1037765;28;20017;-22
2024/01/18 00:22:41;;;;;;;11.07;10.20;;;;;;;;;;1037894;28;20108;-22
2024/01/18 00:23:12;;;;;;;6.70;6.03;;;;;;;;;;1037116;28;20026;-22
2024/01/18 00:23:42;;;;;;;4.55;4.20;;;;;;;;;;1037868;28;20022;-22
2024/01/18 00:24:13;;;;;;;11.35;9.20;;;;;;;;;;1037247;28;20033;-22
2024/01/18 00:24:43;;;;;;;9.55;8.63;;;;;;;;;;1037878;28;20030;-22
2024/01/18 00:25:14;;;;;;;11.55;10.43;;;;;;;;;;1038360;28;20108;-22
2024/01/18 00:25:44;;;;;;;15.52;10.20;;;;;;;;;;1037547;28;20458;-22
2024/01/18 00:26:15;;;;;;;37.67;11.48;;;;;;;;;;1037894;28;20029;-21
2024/01/18 00:26:45;;;;;;;9.98;7.18;;;;;;;;;;1037535;28;20052;-22
2024/01/18 00:27:16;;;;;;;9.13;5.82;;;;;;;;;;1036812;28;20148;-22
2024/01/18 00:27:46;;;;;;;16.25;9.55;;;;;;;;;;1037665;28;20417;-22
2024/01/18 00:28:17;;;;;;;4.28;3.65;;;;;;;;;;1037947;28;20030;-22
2024/01/18 00:28:47;;;;;;;12.52;8.27;;;;;;;;;;1037683;28;20112;-22
2024/01/18 00:29:17;;;;;;;10.02;9.07;;;;;;;;;;1039066;28;20036;-22
2024/01/18 00:29:48;;;;;;;19.90;13.50;;;;;;;;;;1033309;28;20324;-22
2024/01/18 00:30:18;;;;;;;16.27;11.73;;;;;;;;;;1033416;28;20030;-22
2024/01/18 00:30:49;;;;;;;27.15;16.00;;;;;;;;;;1033271;28;20089;-22
2024/01/18 00:31:19;;;;;;;25.02;14.32;;;;;;;;;;1033590;28;20018;-22
2024/01/18 00:31:50;;;;;;;32.30;16.55;;;;;;;;;;1037613;28;20037;-22
2024/01/18 00:32:20;;;;;;;26.95;16.38;;;;;;;;;;1037754;28;20080;-22
2024/01/18 00:32:50;;;;;;;37.45;19.80;;;;;;;;;;1033519;28;20030;-22
2024/01/18 00:33:21;;;;;;;41.55;16.30;;;;;;;;;;1033481;28;20034;-22
2024/01/18 00:33:57;;;;;;;30.50;10.98;;;;;;;;;;1032832;28;20508;-22
2024/01/18 00:34:28;;;;;;;20.80;10.02;;;;;;;;;;1034696;28;20121;-22
2024/01/18 00:34:58;;;;;;;34.67;16.08;;;;;;;;;;1038029;28;20512;-22
2024/01/18 00:35:29;;;;;;;14.50;12.90;;;;;;;;;;1032430;28;20026;-22
2024/01/18 00:35:59;;;;;;;22.88;12.80;;;;;;;;;;1033631;28;20381;-22
2024/01/18 00:36:30;;;;;;;31.48;16.85;;;;;;;;;;1033392;28;20027;-22
2024/01/18 00:37:00;;;;;;;11.60;9.57;;;;;;;;;;1033472;28;20378;-22
2024/01/18 00:37:30;;;;;;;15.63;9.88;;;;;;;;;;1037441;28;20025;-22
2024/01/18 00:38:01;;;;;;;8.20;6.47;;;;;;;;;;1037916;28;20026;-22
2024/01/18 00:38:32;;;;;;;17.52;12.27;;;;;;;;;;1037652;28;20417;-22
2024/01/18 00:39:08;;;;;;;27.65;9.13;;;;;;;;;;1037914;28;20025;-22
2024/01/18 00:39:42;;;;;;;11.10;9.65;;;;;;;;;;1037704;28;20091;-22
2024/01/18 00:40:14;;;;;;;12.13;7.57;;;;;;;;;;1037679;28;20033;-22
2024/01/18 00:40:44;;;;;;;8.88;8.07;;;;;;;;;;1037524;28;20044;-22
2024/01/18 00:41:15;;;;;;;6.65;6.13;;;;;;;;;;1037969;28;20030;-22
2024/01/18 00:41:47;;;;;;;12.35;10.23;;;;;;;;;;1037612;28;20033;-22
2024/01/18 00:42:17;;;;;;;10.73;9.43;;;;;;;;;;1037810;28;20036;-22
2024/01/18 00:42:47;;;;;;;18.55;6.53;;;;;;;;;;1037853;28;20048;-22
2024/01/18 00:43:18;;;;;;;13.38;10.93;;;;;;;;;;1039351;28;20025;-22
2024/01/18 00:43:48;;;;;;;13.93;8.00;;;;;;;;;;1037715;28;20397;-22
2024/01/18 00:44:19;;;;;;;9.10;5.13;;;;;;;;;;1037718;28;20117;-22
2024/01/18 00:44:49;;;;;;;25.63;16.55;;;;;;;;;;1037828;28;20362;-22
2024/01/18 00:45:20;;;;;;;20.60;12.80;;;;;;;;;;1037730;28;20022;-22
2024/01/18 00:45:50;;;;;;;15.82;10.27;;;;;;;;;;1037852;28;20025;-22
2024/01/18 00:46:21;;;;;;;14.77;11.35;;;;;;;;;;1037534;28;20033;-22
2024/01/18 00:46:51;;;;;;;6.18;5.47;;;;;;;;;;1037691;28;20535;-22
2024/01/18 00:47:22;;;;;;;6.70;6.10;;;;;;;;;;1037076;28;20022;-22
2024/01/18 00:47:52;;;;;;;13.65;9.07;;;;;;;;;;1037163;28;20025;-22
2024/01/18 00:48:23;;;;;;;7.85;6.60;;;;;;;;;;1037258;28;20032;-22
2024/01/18 00:48:53;;;;;;;6.00;5.53;;;;;;;;;;1037378;28;20030;-22
2024/01/18 00:49:24;;;;;;;13.77;9.55;;;;;;;;;;1036916;28;20025;-22
2024/01/18 00:49:54;;;;;;;27.75;16.20;;;;;;;;;;1037872;28;20024;-21
2024/01/18 00:50:25;;;;;;;24.70;10.95;;;;;;;;;;1036564;28;20113;-22
2024/01/18 00:50:56;;;;;;;25.83;9.80;;;;;;;;;;1036443;28;20061;-22
2024/01/18 00:51:26;;;;;;;19.75;14.68;;;;;;;;;;1037681;28;20025;-22
2024/01/18 00:51:57;;;;;;;7.53;6.25;;;;;;;;;;1037048;28;20435;-22
2024/01/18 00:52:27;;;;;;;11.85;10.68;;;;;;;;;;1037615;28;20025;-22
2024/01/18 00:52:57;;;;;;;14.52;5.68;;;;;;;;;;1038439;28;20026;-22
2024/01/18 00:53:29;;;;;;;19.58;17.83;;;;;;;;;;1033355;28;20030;-22
2024/01/18 00:54:02;;;;;;;20.33;11.15;;;;;;;;;;1033268;28;20121;-22
2024/01/18 00:54:32;;;;;;;18.08;10.10;;;;;;;;;;1033063;28;20470;-22
2024/01/18 00:55:04;;;;;;;9.88;8.07;;;;;;;;;;1033709;28;20018;-22
2024/01/18 00:55:34;;;;;;;12.05;10.07;;;;;;;;;;1037531;28;20030;-22
2024/01/18 00:56:09;;;;;;;10.52;8.63;;;;;;;;;;1037629;28;20017;-22
2024/01/18 00:56:40;;;;;;;9.23;8.32;;;;;;;;;;1037118;28;20370;-22
2024/01/18 00:57:10;;;;;;;11.70;8.82;;;;;;;;;;1037631;28;20032;-22
2024/01/18 00:57:41;;;;;;;16.35;13.15;;;;;;;;;;1037822;28;20496;-22
2024/01/18 00:58:13;;;;;;;27.63;11.50;;;;;;;;;;1037520;28;20033;-22
2024/01/18 00:58:44;;;;;;;26.60;12.70;;;;;;;;;;1033734;28;20033;-22
2024/01/18 00:59:15;;;;;;;18.55;11.52;;;;;;;;;;1034123;28;20022;-22
2024/01/18 00:59:45;;;;;;;19.27;8.57;;;;;;;;;;1033358;28;20025;-22
2024/01/18 01:00:16;;;;;;;33.30;12.38;;;;;;;;;;1033238;28;20084;-22
2024/01/18 01:00:47;;;;;;;38.00;16.17;;;;;;;;;;1037547;28;20432;-22
2024/01/18 01:01:17;;;;;;;39.67;17.00;;;;;;;;;;1037855;28;20025;-22
2024/01/18 01:01:48;;;;;;;36.20;18.23;;;;;;;;;;1037802;28;20049;-22
2024/01/18 01:02:20;;;;;;;33.80;17.95;;;;;;;;;;1037823;28;20216;-22
2024/01/18 01:02:51;;;;;;;28.10;15.98;;;;;;;;;;1037489;28;20112;-22
2024/01/18 01:03:21;;;;;;;32.47;13.00;;;;;;;;;;1037857;28;20060;-22
2024/01/18 01:03:52;;;;;;;6.90;6.32;;;;;;;;;;1037671;28;20026;-22
2024/01/18 01:04:22;;;;;;;22.50;13.40;;;;;;;;;;1037694;28;20025;-22
2024/01/18 01:04:53;;;;;;;23.13;11.35;;;;;;;;;;1037639;28;20104;-22
2024/01/18 01:05:23;;;;;;;18.10;8.52;;;;;;;;;;1037447;28;20116;-22
2024/01/18 01:05:53;;;;;;;37.88;18.83;;;;;;;;;;1032735;28;20018;-22
2024/01/18 01:06:24;;;;;;;30.80;14.65;;;;;;;;;;1033206;28;20140;-22
2024/01/18 01:06:54;;;;;;;14.55;10.30;;;;;;;;;;1033320;28;20137;-22
2024/01/18 01:07:25;;;;;;;31.58;11.90;;;;;;;;;;1033371;28;20034;-22
2024/01/18 01:07:55;;;;;;;17.65;8.48;;;;;;;;;;1037637;28;20033;-21
2024/01/18 01:08:26;;;;;;;28.75;14.98;;;;;;;;;;1037723;28;20032;-22
2024/01/18 01:08:57;;;;;;;24.83;12.02;;;;;;;;;;1033102;28;20567;-22
2024/01/18 01:09:27;;;;;;;19.38;10.90;;;;;;;;;;1034237;28;20041;-22
2024/01/18 01:09:59;;;;;;;25.75;11.55;;;;;;;;;;1033314;28;20455;-22
2024/01/18 01:10:30;;;;;;;23.70;13.25;;;;;;;;;;1033513;28;20029;-22
2024/01/18 01:11:02;;;;;;;24.90;12.02;;;;;;;;;;1037488;28;20084;-22
2024/01/18 01:11:33;;;;;;;26.65;14.32;;;;;;;;;;1037648;28;20025;-22
2024/01/18 01:12:03;;;;;;;10.73;9.48;;;;;;;;;;1037644;28;20477;-21
2024/01/18 01:12:34;;;;;;;13.88;10.90;;;;;;;;;;1037602;28;20025;-22
2024/01/18 01:13:05;;;;;;;9.85;9.00;;;;;;;;;;1037655;28;20445;-22
2024/01/18 01:13:35;;;;;;;23.73;13.93;;;;;;;;;;1037218;28;20026;-22
2024/01/18 01:14:06;;;;;;;24.27;11.10;;;;;;;;;;1038418;28;20032;-22
2024/01/18 01:14:36;;;;;;;16.45;12.85;;;;;;;;;;1037414;28;20022;-22
2024/01/18 01:15:07;;;;;;;19.90;10.50;;;;;;;;;;1037139;28;20018;-22
2024/01/18 01:15:38;;;;;;;20.40;12.55;;;;;;;;;;1037468;28;20437;-21
2024/01/18 01:16:08;;;;;;;21.92;12.60;;;;;;;;;;1037315;28;20037;-22
2024/01/18 01:16:39;;;;;;;20.73;9.55;;;;;;;;;;1037510;28;20075;-22
2024/01/18 01:17:09;;;;;;;12.00;7.47;;;;;;;;;;1032901;28;20080;-22
2024/01/18 01:17:40;;;;;;;21.65;7.95;;;;;;;;;;1033417;28;20090;-22
2024/01/18 01:18:11;;;;;;;15.45;9.75;;;;;;;;;;1032955;28;20037;-22
2024/01/18 01:18:41;;;;;;;6.70;5.53;;;;;;;;;;1034152;28;20022;-22
2024/01/18 01:19:11;;;;;;;7.53;6.47;;;;;;;;;;1037443;28;20021;-22
2024/01/18 01:19:42;;;;;;;8.23;7.47;;;;;;;;;;1037614;28;20112;-22
2024/01/18 01:20:12;;;;;;;9.50;8.55;;;;;;;;;;1038022;28;20036;-22
2024/01/18 01:20:43;;;;;;;5.28;4.45;;;;;;;;;;1036628;28;20026;-22
2024/01/18 01:21:13;;;;;;;8.75;7.85;;;;;;;;;;1037430;28;20034;-22
2024/01/18 01:21:43;;;;;;;7.22;5.13;;;;;;;;;;1037826;28;20026;-22
2024/01/18 01:22:14;;;;;;;9.73;4.97;;;;;;;;;;1037830;28;20370;-22
2024/01/18 01:22:44;;;;;;;11.93;10.85;;;;;;;;;;1037483;28;20547;-22
2024/01/18 01:23:15;;;;;;;15.07;9.98;;;;;;;;;;1037693;28;20536;-22
2024/01/18 01:23:51;;;;;;;8.02;6.70;;;;;;;;;;1037837;28;20107;-22
2024/01/18 01:24:21;;;;;;;13.43;8.38;;;;;;;;;;1036984;28;20037;-22
2024/01/18 01:24:52;;;;;;;16.80;8.50;;;;;;;;;;1038451;28;20033;-22
2024/01/18 01:25:22;;;;;;;7.63;7.00;;;;;;;;;;1037744;28;20028;-21
2024/01/18 01:25:53;;;;;;;17.05;8.13;;;;;;;;;;1037855;28;20044;-22
2024/01/18 01:26:23;;;;;;;8.93;8.13;;;;;;;;;;1037486;28;21154;-22
2024/01/18 01:26:54;;;;;;;18.08;9.93;;;;;;;;;;1038227;28;20029;-22
2024/01/18 01:27:24;;;;;;;6.15;5.40;;;;;;;;;;1037293;28;20037;-22
2024/01/18 01:27:55;;;;;;;12.82;8.27;;;;;;;;;;1037100;28;20021;-22
2024/01/18 01:28:25;;;;;;;13.07;11.43;;;;;;;;;;1036633;28;20768;-22
2024/01/18 01:28:55;;;;;;;6.65;5.53;;;;;;;;;;1036724;28;20021;-22
2024/01/18 01:29:26;;;;;;;19.50;11.10;;;;;;;;;;1036504;28;20060;-22
2024/01/18 01:29:57;;;;;;;11.43;5.50;;;;;;;;;;1037494;28;20030;-22
2024/01/18 01:30:27;;;;;;;32.10;13.10;;;;;;;;;;1036198;28;20017;-22
2024/01/18 01:30:58;;;;;;;6.57;6.07;;;;;;;;;;1037091;28;20025;-22
2024/01/18 01:31:28;;;;;;;8.15;7.55;;;;;;;;;;1037094;28;20025;-22
2024/01/18 01:31:59;;;;;;;10.77;7.15;;;;;;;;;;1037212;28;20033;-22
2024/01/18 01:32:29;;;;;;;6.93;4.72;;;;;;;;;;1037108;28;20104;-22
2024/01/18 01:32:59;;;;;;;6.78;5.22;;;;;;;;;;1036318;28;20581;-22
2024/01/18 01:33:30;;;;;;;6.55;5.90;;;;;;;;;;1036122;28;20099;-22
2024/01/18 01:34:00;;;;;;;5.68;3.88;;;;;;;;;;1038253;28;20036;-22
2024/01/18 01:34:31;;;;;;;8.93;8.00;;;;;;;;;;1037628;28;20133;-22
2024/01/18 01:35:01;;;;;;;6.45;5.90;;;;;;;;;;1038082;28;20063;-22
2024/01/18 01:35:32;;;;;;;12.93;10.68;;;;;;;;;;1036217;28;20535;-22
2024/01/18 01:36:02;;;;;;;15.18;8.98;;;;;;;;;;1037463;28;20022;-22
2024/01/18 01:36:33;;;;;;;19.42;10.98;;;;;;;;;;1037173;28;20112;-22
2024/01/18 01:37:03;;;;;;;15.48;11.43;;;;;;;;;;1036765;28;20025;-22
2024/01/18 01:37:34;;;;;;;3.92;3.63;;;;;;;;;;1037056;28;20030;-22
2024/01/18 01:38:04;;;;;;;16.85;11.63;;;;;;;;;;1036665;28;20018;-22
2024/01/18 01:38:35;;;;;;;4.43;4.05;;;;;;;;;;1037232;28;20030;-22
2024/01/18 01:39:06;;;;;;;5.22;4.82;;;;;;;;;;1037088;28;20025;-22
2024/01/18 01:39:37;;;;;;;7.70;6.10;;;;;;;;;;1036951;28;20026;-22
2024/01/18 01:40:08;;;;;;;16.35;6.93;;;;;;;;;;1037046;28;20517;-22
2024/01/18 01:40:38;;;;;;;12.93;8.88;;;;;;;;;;1036972;28;20113;-22
2024/01/18 01:41:09;;;;;;;12.52;11.32;;;;;;;;;;1037269;28;20025;-22
2024/01/18 01:41:39;;;;;;;9.00;5.93;;;;;;;;;;1037014;28;20496;-22
2024/01/18 01:42:10;;;;;;;25.10;6.97;;;;;;;;;;1037344;28;20045;-22
2024/01/18 01:42:40;;;;;;;4.03;3.70;;;;;;;;;;1036266;28;20036;-22
2024/01/18 01:43:10;;;;;;;15.88;8.20;;;;;;;;;;1037458;28;20022;-22
2024/01/18 01:43:57;;;;;;;7.18;6.60;;;;;;;;;;1036966;28;20029;-22
2024/01/18 01:44:27;;;;;;;8.40;7.63;;;;;;;;;;1036230;28;20029;-22
2024/01/18 01:44:57;;;;;;;11.30;9.95;;;;;;;;;;1037011;28;20540;-22
2024/01/18 01:45:31;;;;;;;11.80;9.50;;;;;;;;;;1037329;28;20045;-22
2024/01/18 01:46:01;;;;;;;18.08;8.23;;;;;;;;;;1037568;28;20033;-22
2024/01/18 01:46:32;;;;;;;16.10;6.30;;;;;;;;;;1037837;28;20529;-22
2024/01/18 01:47:02;;;;;;;29.85;14.40;;;;;;;;;;1037367;28;20075;-22
2024/01/18 01:47:33;;;;;;;7.25;6.35;;;;;;;;;;1037098;28;20022;-22
2024/01/18 01:48:06;;;;;;;10.85;9.82;;;;;;;;;;1036912;28;20128;-22
2024/01/18 01:48:36;;;;;;;6.60;5.40;;;;;;;;;;1036937;28;20461;-22
2024/01/18 01:49:07;;;;;;;17.10;8.75;;;;;;;;;;1037942;28;20029;-22
2024/01/18 01:49:38;;;;;;;8.23;6.47;;;;;;;;;;1036180;28;20033;-22
2024/01/18 01:50:09;;;;;;;14.15;9.45;;;;;;;;;;1035485;28;20021;-22
2024/01/18 01:50:40;;;;;;;16.25;11.18;;;;;;;;;;1034844;28;20025;-22
2024/01/18 01:51:10;;;;;;;11.20;8.63;;;;;;;;;;1037436;28;20022;-22
2024/01/18 01:51:48;;;;;;;12.18;8.90;;;;;;;;;;1035976;28;20032;-22
2024/01/18 01:52:18;;;;;;;8.70;7.95;;;;;;;;;;1035074;28;20026;-22
2024/01/18 01:52:49;;;;;;;18.13;14.02;;;;;;;;;;1037654;28;20040;-22
2024/01/18 01:53:20;;;;;;;22.40;11.50;;;;;;;;;;1036409;28;20018;-22
2024/01/18 01:53:51;;;;;;;6.68;5.68;;;;;;;;;;1036773;28;20036;-22
2024/01/18 01:54:23;;;;;;;15.10;7.20;;;;;;;;;;1037241;28;20030;-22
2024/01/18 01:54:54;;;;;;;35.67;11.30;;;;;;;;;;1037194;28;20132;-22
2024/01/18 01:55:24;;;;;;;6.18;5.63;;;;;;;;;;1037112;28;20087;-22
2024/01/18 01:55:55;;;;;;;17.20;8.50;;;;;;;;;;1037185;28;20080;-22
2024/01/18 01:56:25;;;;;;;10.43;8.02;;;;;;;;;;1038862;28;20040;-22
2024/01/18 01:56:57;;;;;;;14.57;7.90;;;;;;;;;;1037024;28;20025;-22
2024/01/18 01:57:28;;;;;;;6.00;5.60;;;;;;;;;;1036779;28;20082;-22
2024/01/18 01:57:59;;;;;;;13.63;9.38;;;;;;;;;;1033035;28;20450;-22
2024/01/18 01:58:30;;;;;;;7.35;6.68;;;;;;;;;;1032514;28;20301;-22
2024/01/18 01:59:01;;;;;;;13.30;8.63;;;;;;;;;;1032799;28;20474;-22
2024/01/18 01:59:32;;;;;;;13.95;12.25;;;;;;;;;;1032748;28;20401;-22
2024/01/18 02:00:02;;;;;;;13.75;11.20;;;;;;;;;;1033016;28;20409;-22
2024/01/18 02:00:33;;;;;;;28.52;11.50;;;;;;;;;;1032598;28;20021;-22
2024/01/18 02:01:03;;;;;;;25.20;12.45;;;;;;;;;;1036107;28;20053;-22
2024/01/18 02:01:34;;;;;;;7.82;6.60;;;;;;;;;;1037388;28;20048;-22
2024/01/18 02:02:06;;;;;;;23.73;13.57;;;;;;;;;;1037319;28;20052;-22
2024/01/18 02:02:39;;;;;;;10.85;7.00;;;;;;;;;;1036883;28;20034;-22
2024/01/18 02:03:09;;;;;;;18.23;7.90;;;;;;;;;;1038130;28;20037;-22
2024/01/18 02:03:40;;;;;;;20.55;14.27;;;;;;;;;;1037071;28;20468;-21
2024/01/18 02:04:11;;;;;;;27.30;16.08;;;;;;;;;;1032875;28;20145;-22
2024/01/18 02:04:42;;;;;;;27.13;12.43;;;;;;;;;;1032722;28;20112;-22
2024/01/18 02:05:12;;;;;;;16.42;14.75;;;;;;;;;;1032068;28;20018;-22
2024/01/18 02:05:43;;;;;;;30.10;16.50;;;;;;;;;;1034059;28;20049;-22
2024/01/18 02:06:15;;;;;;;13.40;5.72;;;;;;;;;;1036646;28;20036;-21
2024/01/18 02:06:46;;;;;;;21.75;13.38;;;;;;;;;;1036928;28;20029;-22
2024/01/18 02:07:16;;;;;;;19.70;11.05;;;;;;;;;;1036994;28;20025;-21
2024/01/18 02:07:47;;;;;;;14.43;10.02;;;;;;;;;;1035509;28;20021;-22
2024/01/18 02:08:18;;;;;;;17.33;12.10;;;;;;;;;;1037712;28;20041;-22
2024/01/18 02:08:49;;;;;;;27.05;14.70;;;;;;;;;;1029913;28;20018;-22
2024/01/18 02:09:21;;;;;;;23.55;12.65;;;;;;;;;;1030208;28;20029;-22
2024/01/18 02:09:52;;;;;;;22.98;13.20;;;;;;;;;;1032170;28;20022;-22
2024/01/18 02:10:23;;;;;;;10.70;8.68;;;;;;;;;;1030964;28;20417;-22
2024/01/18 02:10:55;;;;;;;16.23;9.95;;;;;;;;;;1032123;28;20034;-21
2024/01/18 02:11:26;;;;;;;21.55;10.60;;;;;;;;;;1037402;28;20478;-22
2024/01/18 02:11:57;;;;;;;28.25;8.63;;;;;;;;;;1037933;28;20021;-22
2024/01/18 02:12:28;;;;;;;22.35;11.77;;;;;;;;;;1037586;28;20079;-21
2024/01/18 02:13:00;;;;;;;40.67;17.98;;;;;;;;;;1037354;28;20568;-21
2024/01/18 02:13:32;;;;;;;25.38;14.00;;;;;;;;;;1032091;28;20370;-22
2024/01/18 02:14:04;;;;;;;34.20;14.52;;;;;;;;;;1032984;28;20020;-21
2024/01/18 02:14:35;;;;;;;42.08;18.30;;;;;;;;;;1032999;28;20049;-21
2024/01/18 02:15:06;;;;;;;28.00;13.60;;;;;;;;;;1033349;28;20026;-21
2024/01/18 02:15:37;;;;;;;30.58;13.35;;;;;;;;;;1032918;28;20056;-21
2024/01/18 02:16:07;;;;;;;21.17;11.93;;;;;;;;;;1031658;28;20485;-21
2024/01/18 02:16:38;;;;;;;10.57;4.55;;;;;;;;;;1037987;28;20029;-21
2024/01/18 02:17:09;;;;;;;9.30;6.32;;;;;;;;;;1037914;28;20476;-21
2024/01/18 02:17:39;;;;;;;18.80;6.95;;;;;;;;;;1036927;28;20477;-21
2024/01/18 02:18:10;;;;;;;14.43;9.07;;;;;;;;;;1036676;28;20104;-22
2024/01/18 02:18:41;;;;;;;28.23;9.35;;;;;;;;;;1035995;28;20072;-22
2024/01/18 02:19:12;;;;;;;20.20;11.57;;;;;;;;;;1032197;28;20571;-21
2024/01/18 02:19:43;;;;;;;25.58;12.95;;;;;;;;;;1032864;28;20030;-22
2024/01/18 02:20:13;;;;;;;24.73;15.95;;;;;;;;;;1032346;28;20546;-22
2024/01/18 02:20:44;;;;;;;15.80;11.73;;;;;;;;;;1032400;28;20466;-21
2024/01/18 02:21:14;;;;;;;20.23;11.50;;;;;;;;;;1036101;28;20022;-21
2024/01/18 02:21:45;;;;;;;15.30;11.00;;;;;;;;;;1031947;28;20033;-21
2024/01/18 02:22:16;;;;;;;33.30;14.90;;;;;;;;;;1033076;28;20026;-22
2024/01/18 02:22:47;;;;;;;21.23;10.68;;;;;;;;;;1032382;28;20077;-22
2024/01/18 02:23:18;;;;;;;33.83;14.23;;;;;;;;;;1032913;28;20184;-21
2024/01/18 02:23:51;;;;;;;10.55;7.68;;;;;;;;;;1032939;28;20109;-21
2024/01/18 02:24:31;;;;;;;26.80;12.77;;;;;;;;;;1033157;28;20021;-22
2024/01/18 02:25:11;;;;;;;11.23;9.23;;;;;;;;;;1033369;28;20029;-22
2024/01/18 02:25:42;;;;;;;13.98;7.15;;;;;;;;;;1032658;28;20041;-21
2024/01/18 02:26:13;;;;;;;11.27;8.35;;;;;;;;;;1032248;28;20049;-22
2024/01/18 02:26:44;;;;;;;21.67;9.52;;;;;;;;;;1033530;28;20026;-22
2024/01/18 02:27:14;;;;;;;19.23;8.55;;;;;;;;;;1037074;28;20022;-22
2024/01/18 02:27:46;;;;;;;34.15;16.13;;;;;;;;;;1037413;28;20507;-22
2024/01/18 02:28:16;;;;;;;6.82;6.20;;;;;;;;;;1033271;28;20417;-22
2024/01/18 02:28:57;;;;;;;16.80;11.57;;;;;;;;;;1031432;28;20033;-21
2024/01/18 02:29:28;;;;;;;17.90;6.18;;;;;;;;;;1025915;28;20071;-21
2024/01/18 02:29:59;;;;;;;12.63;8.82;;;;;;;;;;1028807;28;20042;-21
2024/01/18 02:30:29;;;;;;;20.90;10.07;;;;;;;;;;1030992;28;20029;-22
2024/01/18 02:31:00;;;;;;;17.85;10.15;;;;;;;;;;1033725;28;20058;-22
2024/01/18 02:31:31;;;;;;;14.00;5.60;;;;;;;;;;1033019;28;20773;-22
2024/01/18 02:32:01;;;;;;;16.85;12.30;;;;;;;;;;1032161;28;20033;-22
2024/01/18 02:32:32;;;;;;;13.32;7.97;;;;;;;;;;1033036;28;20064;-22
2024/01/18 02:33:02;;;;;;;12.57;11.30;;;;;;;;;;1032675;28;20100;-22
2024/01/18 02:33:33;;;;;;;8.98;7.85;;;;;;;;;;1036816;28;21303;-22
2024/01/18 02:34:07;;;;;;;20.63;9.02;;;;;;;;;;1038446;28;20025;-21
2024/01/18 02:34:43;;;;;;;10.98;8.50;;;;;;;;;;1036704;28;20033;-22
2024/01/18 02:35:15;;;;;;;19.10;7.85;;;;;;;;;;1035642;28;20030;-22
2024/01/18 02:35:47;;;;;;;9.32;8.38;;;;;;;;;;1036010;28;20382;-22
2024/01/18 02:36:22;;;;;;;16.48;13.07;;;;;;;;;;1036258;28;20733;-22
2024/01/18 02:36:52;;;;;;;13.68;9.20;;;;;;;;;;1038319;28;20151;-22
2024/01/18 02:37:23;;;;;;;17.80;10.15;;;;;;;;;;1038621;28;20030;-22
2024/01/18 02:37:55;;;;;;;23.00;7.95;;;;;;;;;;1038086;28;20075;-22
2024/01/18 02:38:27;;;;;;;16.45;8.65;;;;;;;;;;1035914;28;20017;-21
2024/01/18 02:38:59;;;;;;;16.80;10.32;;;;;;;;;;1035798;28;20568;-22
2024/01/18 02:39:29;;;;;;;19.40;10.93;;;;;;;;;;1036878;28;20043;-22
2024/01/18 02:40:00;;;;;;;37.05;12.93;;;;;;;;;;1032770;28;20028;-22
2024/01/18 02:40:32;;;;;;;10.82;9.20;;;;;;;;;;1031348;28;20033;-22
2024/01/18 02:41:04;;;;;;;27.67;17.40;;;;;;;;;;1029877;28;20026;-20
2024/01/18 02:41:37;;;;;;;14.68;12.82;;;;;;;;;;1025159;28;20028;-22
2024/01/18 02:42:07;;;;;;;31.20;10.45;;;;;;;;;;1028992;28;20027;-22
2024/01/18 02:42:38;;;;;;;16.67;12.10;;;;;;;;;;1029597;28;20026;-22
2024/01/18 02:43:09;;;;;;;44.92;21.23;;;;;;;;;;1033396;28;20014;-22
2024/01/18 02:43:41;;;;;;;14.30;9.55;;;;;;;;;;1038011;28;20059;-22
2024/01/18 02:44:14;;;;;;;9.68;6.28;;;;;;;;;;1030761;28;20021;-22
2024/01/18 02:44:46;;;;;;;9.70;8.75;;;;;;;;;;1031240;28;20400;-22
2024/01/18 02:45:18;;;;;;;11.23;9.13;;;;;;;;;;1028395;28;20034;-22
2024/01/18 02:45:51;;;;;;;10.90;9.90;;;;;;;;;;1031089;28;20425;-22
2024/01/18 02:46:23;;;;;;;13.00;8.30;;;;;;;;;;1029481;28;20681;-22
2024/01/18 02:46:54;;;;;;;16.80;9.18;;;;;;;;;;1030659;28;20029;-21
2024/01/18 02:47:26;;;;;;;7.22;6.53;;;;;;;;;;1026211;28;20058;-21
2024/01/18 02:47:56;;;;;;;11.82;9.05;;;;;;;;;;1027948;28;20080;-21
2024/01/18 02:48:27;;;;;;;7.80;7.05;;;;;;;;;;1032283;28;20018;-21
2024/01/18 02:48:57;;;;;;;11.18;6.65;;;;;;;;;;1032129;28;20037;-21
2024/01/18 02:49:27;;;;;;;18.00;8.07;;;;;;;;;;1036263;28;20032;-21
2024/01/18 02:49:59;;;;;;;11.10;8.88;;;;;;;;;;1031931;28;20029;-21
2024/01/18 02:50:31;;;;;;;13.82;10.88;;;;;;;;;;1026947;28;20417;-21
2024/01/18 02:51:01;;;;;;;12.32;11.02;;;;;;;;;;1027502;28;20038;-22
2024/01/18 02:51:32;;;;;;;9.60;7.78;;;;;;;;;;1029576;28;20033;-22
2024/01/18 02:52:04;;;;;;;8.25;7.63;;;;;;;;;;1032080;28;20025;-22
2024/01/18 02:52:38;;;;;;;9.20;8.27;;;;;;;;;;1033084;28;20026;-21
2024/01/18 02:53:09;;;;;;;7.75;7.07;;;;;;;;;;1030914;28;20048;-21
2024/01/18 02:53:40;;;;;;;32.58;10.20;;;;;;;;;;1033627;28;20136;-22
2024/01/18 02:54:12;;;;;;;18.15;9.63;;;;;;;;;;1036034;28;20040;-22
2024/01/18 02:54:43;;;;;;;5.40;4.90;;;;;;;;;;1032503;28;20026;-22
2024/01/18 02:55:13;;;;;;;16.42;8.27;;;;;;;;;;1032391;28;20037;-21
2024/01/18 02:55:45;;;;;;;10.43;9.45;;;;;;;;;;1032444;28;20044;-21
2024/01/18 02:56:16;;;;;;;8.60;5.75;;;;;;;;;;1029058;28;20030;-22
2024/01/18 02:56:47;;;;;;;11.82;7.78;;;;;;;;;;1032575;28;20103;-23
2024/01/18 02:57:19;;;;;;;9.02;7.70;;;;;;;;;;1031727;28;20445;-22
2024/01/18 02:57:50;;;;;;;10.50;9.30;;;;;;;;;;1028430;28;20496;-21
2024/01/18 02:58:22;;;;;;;16.38;11.40;;;;;;;;;;1031554;28;20026;-22
2024/01/18 02:58:54;;;;;;;19.55;10.57;;;;;;;;;;1028558;28;20034;-21
2024/01/18 02:59:26;;;;;;;15.30;10.57;;;;;;;;;;1028746;28;20042;-22
2024/01/18 03:00:03;;;;;;;12.50;6.85;;;;;;;;;;1029527;28;20094;-22
2024/01/18 03:00:39;;;;;;;12.05;9.00;;;;;;;;;;1031041;28;20034;-22
2024/01/18 03:01:10;;;;;;;11.40;6.63;;;;;;;;;;1024156;28;20082;-22
2024/01/18 03:01:41;;;;;;;12.63;9.63;;;;;;;;;;1030335;28;20033;-22
2024/01/18 03:02:12;;;;;;;6.90;5.63;;;;;;;;;;1028876;28;20023;-22
2024/01/18 03:02:42;;;;;;;19.63;11.43;;;;;;;;;;1031108;28;20022;-22
2024/01/18 03:03:14;;;;;;;16.92;13.00;;;;;;;;;;1032226;28;20034;-22